Terminal Aerodrome Forecast
Issued by NWS

Home | Current Version | Previous Version | Text Only | Print | Product List | Glossary On
Versions: 1 2 3 4 5 6 7 8 9 10 11 12 13 14 15
000
FTUS44 KLIX 211121
TAFGPT
TAF
KGPT 211121Z 2112/2212 03007KT P6SM SCT100
     FM211900 14007KT P6SM FEW250
     FM220000 16004KT P6SM FEW250
     FM221100 VRB04KT 5SM BR SCT090=

USA.gov is the U.S. government's official web portal to all federal, state and local government web resources and services.